Aldan, Pennsylvania
Current Conditions -  °F | °C
As of 9:54 PM on Monday 20 Oct 2014 (Local Time) from KPHL Reporting Station
Broken Clouds Broken Clouds  
Wind Chill: 56°   Ceiling: 19000
Heat Index: 56°   Visibility: 10mi
Dew Point: 44°   Wind: 5mph
Humidity: 64%   Direction: 220°SW
Pressure: 29.98"   Gusts: NA
Location:  39.9228°N, 75.2984°W
Report Text: KPHL 210154Z 22004KT 10SM SCT080 BKN190 BKN250 13/07 A2998 RMK AO2 SLP152 T01330067
Loading
Personal Weather Stations






























Interactive Weather Map
Tropical Storm Tracking
New forecast layout! Learn more

10-Day Weather Forecast

Advertisements
Track Severe Weather on mobile